Time;durP1;ratioP1;P1;durP2;ratioP2;P2;SDS_P1;SDS_P2;PMS_P1;PMS_P2;Temp;Humidity;BMP_temperature;BMP_pressure;BME280_temperature;BME280_humidity;BME280_pressure;Samples;Min_cycle;Max_cycle;Signal;HPM_P1;HPM_P2
2023/10/11 00:02:53;;;;;;;6.97;3.30;;;;;;;;;;4935515;29;20490;-59
2023/10/11 00:05:19;;;;;;;9.80;4.10;;;;;;;;;;4934228;29;20047;-58
2023/10/11 00:07:45;;;;;;;8.48;4.70;;;;;;;;;;4936504;29;20043;-58
2023/10/11 00:10:11;;;;;;;9.02;4.15;;;;;;;;;;4932491;29;20031;-59
2023/10/11 00:12:41;;;;;;;9.57;4.32;;;;;;;;;;4936079;29;20035;-60
2023/10/11 00:15:08;;;;;;;11.38;4.57;;;;;;;;;;4935253;29;20071;-57
2023/10/11 00:17:36;;;;;;;8.93;4.22;;;;;;;;;;4935255;29;20035;-57
2023/10/11 00:20:11;;;;;;;8.95;4.38;;;;;;;;;;4933210;29;20477;-58
2023/10/11 00:22:39;;;;;;;7.63;3.97;;;;;;;;;;4935392;29;20083;-60
2023/10/11 00:25:05;;;;;;;8.43;4.32;;;;;;;;;;4933997;29;20035;-59
2023/10/11 00:27:31;;;;;;;10.25;4.30;;;;;;;;;;4936649;29;20087;-59
2023/10/11 00:29:58;;;;;;;9.32;4.45;;;;;;;;;;4932280;29;20418;-58
2023/10/11 00:32:23;;;;;;;8.25;4.15;;;;;;;;;;4935501;29;20388;-59
2023/10/11 00:34:49;;;;;;;12.93;4.63;;;;;;;;;;4932389;29;20456;-59
2023/10/11 00:37:16;;;;;;;7.97;4.20;;;;;;;;;;4933477;29;20059;-57
2023/10/11 00:39:43;;;;;;;8.55;4.07;;;;;;;;;;4934017;29;20123;-57
2023/10/11 00:42:10;;;;;;;10.57;4.10;;;;;;;;;;4933967;29;20111;-55
2023/10/11 00:44:36;;;;;;;8.20;4.35;;;;;;;;;;4933727;29;20031;-57
2023/10/11 00:47:04;;;;;;;9.70;4.13;;;;;;;;;;4933355;29;20118;-57
2023/10/11 00:49:36;;;;;;;10.60;4.32;;;;;;;;;;4916929;29;20104;-57
2023/10/11 00:52:04;;;;;;;11.05;4.47;;;;;;;;;;4934008;29;20473;-57
2023/10/11 00:54:30;;;;;;;12.45;4.50;;;;;;;;;;4935085;29;20039;-58
2023/10/11 00:56:56;;;;;;;9.60;4.47;;;;;;;;;;4933751;29;20102;-57
2023/10/11 00:59:22;;;;;;;11.80;4.43;;;;;;;;;;4932624;29;20131;-57
2023/10/11 01:01:50;;;;;;;10.23;4.35;;;;;;;;;;4933720;29;20042;-61
2023/10/11 01:04:16;;;;;;;10.75;4.60;;;;;;;;;;4932109;29;20054;-57
2023/10/11 01:06:41;;;;;;;11.57;4.40;;;;;;;;;;4934698;29;20035;-59
2023/10/11 01:09:15;;;;;;;8.50;4.50;;;;;;;;;;4930996;29;20044;-59
2023/10/11 01:11:41;;;;;;;12.13;5.05;;;;;;;;;;4926256;29;20524;-59
2023/10/11 01:14:06;;;;;;;7.53;3.92;;;;;;;;;;4925902;29;20131;-59
2023/10/11 01:16:32;;;;;;;13.75;4.65;;;;;;;;;;4932835;29;20040;-58
2023/10/11 01:18:57;;;;;;;9.43;3.88;;;;;;;;;;4931074;29;20031;-59
2023/10/11 01:21:23;;;;;;;11.15;4.43;;;;;;;;;;4916735;29;20072;-59
2023/10/11 01:23:48;;;;;;;13.43;4.35;;;;;;;;;;4930564;29;20393;-58
2023/10/11 01:26:15;;;;;;;8.98;3.70;;;;;;;;;;4914638;29;20036;-57
2023/10/11 01:28:42;;;;;;;10.07;4.40;;;;;;;;;;4906222;29;20039;-57
2023/10/11 01:31:09;;;;;;;12.02;4.63;;;;;;;;;;4930896;29;20059;-59
2023/10/11 01:33:42;;;;;;;11.68;4.05;;;;;;;;;;4932339;29;20038;-59
2023/10/11 01:36:09;;;;;;;10.20;4.32;;;;;;;;;;4933509;29;20042;-61
2023/10/11 01:38:47;;;;;;;10.05;4.22;;;;;;;;;;4933202;29;20118;-59
2023/10/11 01:41:19;;;;;;;8.35;4.25;;;;;;;;;;4912529;29;20283;-58
2023/10/11 01:43:49;;;;;;;8.20;4.68;;;;;;;;;;4928360;29;20043;-59
2023/10/11 01:46:17;;;;;;;10.27;4.72;;;;;;;;;;4934430;29;20487;-57
2023/10/11 01:48:45;;;;;;;9.93;4.30;;;;;;;;;;4922778;29;20160;-59
2023/10/11 01:51:15;;;;;;;9.10;4.35;;;;;;;;;;4934373;29;20818;-57
2023/10/11 01:53:44;;;;;;;7.78;3.85;;;;;;;;;;4933104;29;20159;-60
2023/10/11 01:56:10;;;;;;;10.85;4.20;;;;;;;;;;4923028;29;20040;-59
2023/10/11 01:58:37;;;;;;;10.05;4.50;;;;;;;;;;4919073;29;20036;-63
2023/10/11 02:01:05;;;;;;;11.55;4.22;;;;;;;;;;4921178;29;20063;-59
2023/10/11 02:03:31;;;;;;;10.65;4.18;;;;;;;;;;4931741;29;20043;-59
2023/10/11 02:06:04;;;;;;;9.80;3.90;;;;;;;;;;4924284;29;20032;-60
2023/10/11 02:08:30;;;;;;;11.88;4.57;;;;;;;;;;4914852;29;20051;-62
2023/10/11 02:10:55;;;;;;;11.55;4.30;;;;;;;;;;4927351;29;20043;-60
2023/10/11 02:13:21;;;;;;;11.57;4.57;;;;;;;;;;4933586;29;20031;-58
2023/10/11 02:15:48;;;;;;;10.35;4.38;;;;;;;;;;4914978;29;20034;-59
2023/10/11 02:18:13;;;;;;;8.52;4.00;;;;;;;;;;4933204;29;20028;-57
2023/10/11 02:20:45;;;;;;;9.40;4.40;;;;;;;;;;4931900;29;20059;-58
2023/10/11 02:23:11;;;;;;;10.93;4.22;;;;;;;;;;4932193;29;20039;-57
2023/10/11 02:25:44;;;;;;;13.50;4.47;;;;;;;;;;4915703;29;20035;-59
2023/10/11 02:28:09;;;;;;;9.60;3.95;;;;;;;;;;4933362;29;20042;-58
2023/10/11 02:30:38;;;;;;;8.48;4.05;;;;;;;;;;4914309;29;20044;-57
2023/10/11 02:33:07;;;;;;;12.00;4.43;;;;;;;;;;4933683;29;20479;-58
2023/10/11 02:35:49;;;;;;;10.85;4.50;;;;;;;;;;4915682;29;20492;-58
2023/10/11 02:38:21;;;;;;;10.10;3.78;;;;;;;;;;4931050;29;20164;-57
2023/10/11 02:40:54;;;;;;;9.85;4.28;;;;;;;;;;4933521;29;20088;-58
2023/10/11 02:43:20;;;;;;;10.00;4.30;;;;;;;;;;4928143;29;20055;-60
2023/10/11 02:45:45;;;;;;;11.27;4.78;;;;;;;;;;4921732;29;20082;-59
2023/10/11 02:48:11;;;;;;;11.43;4.70;;;;;;;;;;4914779;29;20039;-57
2023/10/11 02:50:36;;;;;;;11.20;4.38;;;;;;;;;;4933307;29;20031;-58
2023/10/11 02:53:12;;;;;;;12.35;4.78;;;;;;;;;;4932168;29;20473;-58
2023/10/11 02:55:38;;;;;;;10.63;4.20;;;;;;;;;;4931837;29;20032;-58
2023/10/11 02:58:07;;;;;;;11.30;4.93;;;;;;;;;;4931675;29;20548;-57
2023/10/11 03:00:43;;;;;;;12.20;4.57;;;;;;;;;;4931970;29;20031;-58
2023/10/11 03:03:11;;;;;;;12.48;4.15;;;;;;;;;;4928702;29;20095;-59
2023/10/11 03:05:38;;;;;;;11.85;4.53;;;;;;;;;;4915641;29;20111;-57
2023/10/11 03:08:19;;;;;;;12.07;4.40;;;;;;;;;;4939294;29;20618;-59
2023/10/11 03:10:53;;;;;;;12.32;4.50;;;;;;;;;;4920424;29;20051;-61
2023/10/11 03:13:29;;;;;;;8.35;4.43;;;;;;;;;;4937111;29;20650;-57
2023/10/11 03:15:59;;;;;;;11.55;4.75;;;;;;;;;;4937845;29;20032;-58
2023/10/11 03:18:32;;;;;;;11.90;4.47;;;;;;;;;;4937039;29;20072;-56
2023/10/11 03:21:17;;;;;;;8.60;4.07;;;;;;;;;;4937230;29;20063;-60
2023/10/11 03:23:44;;;;;;;7.75;4.30;;;;;;;;;;4937686;29;20027;-59
2023/10/11 03:26:22;;;;;;;12.02;4.68;;;;;;;;;;4936843;29;20031;-58
2023/10/11 03:28:58;;;;;;;9.98;4.45;;;;;;;;;;4937021;29;20036;-57
2023/10/11 03:31:27;;;;;;;10.60;4.40;;;;;;;;;;4936933;29;20570;-56
2023/10/11 03:33:53;;;;;;;14.05;4.85;;;;;;;;;;4920285;29;20084;-61
2023/10/11 03:36:27;;;;;;;11.00;4.93;;;;;;;;;;4936271;29;20177;-59
2023/10/11 03:38:52;;;;;;;12.27;4.15;;;;;;;;;;4919804;29;20586;-59
2023/10/11 03:41:25;;;;;;;14.18;4.82;;;;;;;;;;4936167;29;20057;-60
2023/10/11 03:43:54;;;;;;;10.00;4.55;;;;;;;;;;4936176;29;20028;-61
2023/10/11 03:46:25;;;;;;;11.60;4.38;;;;;;;;;;4935796;29;20109;-60
2023/10/11 03:49:02;;;;;;;14.70;5.13;;;;;;;;;;4919676;29;20039;-60
2023/10/11 03:51:28;;;;;;;14.98;4.80;;;;;;;;;;4937065;29;20067;-60
2023/10/11 03:53:53;;;;;;;11.18;4.90;;;;;;;;;;4937367;29;20070;-61
2023/10/11 03:56:19;;;;;;;10.70;4.68;;;;;;;;;;4936425;29;20062;-61
2023/10/11 03:58:44;;;;;;;10.32;4.43;;;;;;;;;;4936745;29;20027;-61
2023/10/11 04:01:36;;;;;;;12.20;4.53;;;;;;;;;;4935390;29;20036;-60
2023/10/11 04:04:00;;;;;;;7.70;4.07;;;;;;;;;;4936166;29;20031;-61
2023/10/11 04:06:25;;;;;;;10.88;4.50;;;;;;;;;;4936465;29;20034;-60
2023/10/11 04:09:02;;;;;;;9.35;4.63;;;;;;;;;;4935411;29;20396;-60
2023/10/11 04:11:36;;;;;;;9.48;4.95;;;;;;;;;;4936385;29;20051;-60
2023/10/11 04:14:02;;;;;;;9.48;4.57;;;;;;;;;;4936401;29;20036;-60
2023/10/11 04:16:28;;;;;;;11.88;4.72;;;;;;;;;;4936493;29;20384;-65
2023/10/11 04:18:54;;;;;;;8.95;4.38;;;;;;;;;;4936281;29;20027;-60
2023/10/11 04:21:26;;;;;;;11.02;4.57;;;;;;;;;;4935267;29;20196;-60
2023/10/11 04:23:57;;;;;;;9.88;4.30;;;;;;;;;;4936833;29;20031;-60
2023/10/11 04:26:36;;;;;;;9.93;4.57;;;;;;;;;;4935715;29;20620;-60
2023/10/11 04:29:18;;;;;;;12.13;4.15;;;;;;;;;;4936302;29;20039;-61
2023/10/11 04:34:38;;;;;;;9.75;4.80;;;;;;;;;;4917195;29;20046;-60
2023/10/11 04:37:07;;;;;;;15.82;4.65;;;;;;;;;;4917295;29;20421;-59
2023/10/11 04:39:49;;;;;;;12.13;4.32;;;;;;;;;;4917312;29;20040;-60
2023/10/11 04:42:15;;;;;;;8.90;4.38;;;;;;;;;;4916696;29;20061;-61
2023/10/11 04:44:47;;;;;;;9.48;4.20;;;;;;;;;;4917142;29;20528;-61
2023/10/11 04:47:17;;;;;;;8.55;3.95;;;;;;;;;;4921437;29;20040;-61
2023/10/11 04:49:44;;;;;;;10.63;4.28;;;;;;;;;;4936343;29;20127;-61
2023/10/11 04:52:22;;;;;;;11.13;4.10;;;;;;;;;;4935492;29;20047;-61
2023/10/11 04:54:54;;;;;;;13.60;4.50;;;;;;;;;;4936256;29;20043;-61
2023/10/11 04:57:40;;;;;;;11.80;4.57;;;;;;;;;;4935485;29;20032;-61
2023/10/11 05:00:09;;;;;;;10.23;4.20;;;;;;;;;;4918036;29;20103;-61
2023/10/11 05:02:36;;;;;;;11.52;5.00;;;;;;;;;;4935937;29;20071;-61
2023/10/11 05:05:10;;;;;;;11.23;4.43;;;;;;;;;;4935965;29;20080;-61
2023/10/11 05:07:42;;;;;;;9.38;4.55;;;;;;;;;;4936170;29;20032;-61
2023/10/11 05:13:13;;;;;;;10.00;4.10;;;;;;;;;;4821012;29;20504;-61
2023/10/11 05:15:47;;;;;;;10.15;4.72;;;;;;;;;;4870372;29;20512;-61
2023/10/11 05:18:18;;;;;;;12.13;4.68;;;;;;;;;;4895846;29;20038;-62
2023/10/11 05:20:53;;;;;;;11.95;4.65;;;;;;;;;;4897872;29;20037;-61
2023/10/11 05:23:19;;;;;;;9.95;4.35;;;;;;;;;;4896825;29;20482;-61
2023/10/11 05:25:57;;;;;;;13.25;4.40;;;;;;;;;;4897803;29;20049;-61
2023/10/11 05:34:29;;;;;;;9.63;4.00;;;;;;;;;;4873706;29;20048;-61
2023/10/11 05:50:50;;;;;;;14.43;4.40;;;;;;;;;;4916216;29;20340;-61
2023/10/11 05:53:18;;;;;;;11.07;4.13;;;;;;;;;;4914591;29;20104;-61
2023/10/11 05:55:43;;;;;;;10.82;4.30;;;;;;;;;;4916178;29;20032;-60
2023/10/11 05:58:09;;;;;;;9.27;4.00;;;;;;;;;;4915223;29;20095;-61
2023/10/11 06:00:39;;;;;;;8.32;4.00;;;;;;;;;;4915486;29;20040;-59
2023/10/11 06:03:06;;;;;;;9.80;3.88;;;;;;;;;;4914969;29;20351;-59
2023/10/11 06:05:39;;;;;;;11.05;3.97;;;;;;;;;;4898521;29;20035;-60
2023/10/11 06:08:06;;;;;;;9.95;4.10;;;;;;;;;;4915600;29;20092;-59
2023/10/11 06:10:41;;;;;;;8.38;3.97;;;;;;;;;;4918859;29;20063;-59
2023/10/11 06:13:14;;;;;;;10.40;3.80;;;;;;;;;;4920472;29;20043;-61
2023/10/11 06:16:01;;;;;;;9.48;3.97;;;;;;;;;;4915755;29;20032;-61
2023/10/11 06:18:42;;;;;;;9.73;4.10;;;;;;;;;;4915026;29;20339;-60
2023/10/11 06:21:18;;;;;;;9.85;4.03;;;;;;;;;;4915770;29;20036;-61
2023/10/11 06:23:48;;;;;;;11.80;3.88;;;;;;;;;;4915931;29;20032;-60
2023/10/11 06:29:08;;;;;;;8.35;3.90;;;;;;;;;;4915828;29;20086;-60
2023/10/11 06:31:39;;;;;;;10.25;4.05;;;;;;;;;;4915214;29;20032;-60
2023/10/11 06:37:02;;;;;;;10.82;4.13;;;;;;;;;;4921637;29;20044;-62
2023/10/11 06:42:13;;;;;;;15.02;3.47;;;;;;;;;;4934730;29;20039;-61
2023/10/11 06:44:47;;;;;;;13.15;4.07;;;;;;;;;;4920800;29;20462;-61
2023/10/11 06:47:13;;;;;;;8.18;3.67;;;;;;;;;;4927490;29;20044;-62
2023/10/11 06:49:47;;;;;;;8.52;3.67;;;;;;;;;;4902959;29;20032;-61
2023/10/11 06:52:18;;;;;;;7.55;3.60;;;;;;;;;;4902199;29;20037;-63
2023/10/11 06:54:48;;;;;;;8.77;3.65;;;;;;;;;;4902673;29;20036;-61
2023/10/11 06:57:20;;;;;;;10.23;3.77;;;;;;;;;;4885861;29;20095;-60
2023/10/11 06:59:49;;;;;;;9.90;3.80;;;;;;;;;;4916251;29;20765;-61
2023/10/11 07:02:34;;;;;;;10.05;3.95;;;;;;;;;;4920715;29;20119;-61
2023/10/11 07:05:05;;;;;;;10.35;3.95;;;;;;;;;;4921445;29;20114;-60
2023/10/11 07:07:34;;;;;;;13.85;3.92;;;;;;;;;;4903770;29;20117;-60
2023/10/11 07:10:05;;;;;;;10.45;4.07;;;;;;;;;;4921451;29;20040;-59
2023/10/11 07:12:40;;;;;;;9.60;3.72;;;;;;;;;;4903844;29;20060;-59
2023/10/11 07:15:09;;;;;;;13.50;3.67;;;;;;;;;;4921253;29;20044;-59
2023/10/11 07:17:36;;;;;;;11.65;3.70;;;;;;;;;;4920857;29;20118;-59
2023/10/11 07:20:03;;;;;;;10.25;3.95;;;;;;;;;;4921338;29;20024;-58
2023/10/11 07:22:34;;;;;;;9.30;4.10;;;;;;;;;;4920704;29;20032;-59
2023/10/11 07:25:18;;;;;;;13.20;4.07;;;;;;;;;;4921233;29;20453;-60
2023/10/11 07:27:44;;;;;;;11.43;3.90;;;;;;;;;;4921338;29;20043;-59
2023/10/11 07:30:16;;;;;;;8.20;3.65;;;;;;;;;;4921370;29;20040;-60
2023/10/11 07:32:45;;;;;;;9.70;3.75;;;;;;;;;;4921529;29;20063;-61
2023/10/11 07:35:17;;;;;;;9.98;3.70;;;;;;;;;;4903973;29;20036;-60
2023/10/11 07:37:43;;;;;;;9.15;3.90;;;;;;;;;;4904376;29;20039;-61
2023/10/11 07:40:12;;;;;;;8.93;3.78;;;;;;;;;;4921300;29;20383;-61
2023/10/11 07:42:38;;;;;;;7.85;3.80;;;;;;;;;;4922873;29;20470;-60
2023/10/11 07:45:12;;;;;;;8.73;4.28;;;;;;;;;;4940482;29;20437;-60
2023/10/11 07:47:45;;;;;;;7.43;3.70;;;;;;;;;;4920051;29;20051;-61
2023/10/11 07:50:22;;;;;;;7.65;3.95;;;;;;;;;;4921236;29;20040;-61
2023/10/11 07:52:47;;;;;;;10.48;3.83;;;;;;;;;;4921425;29;20035;-61
2023/10/11 07:55:13;;;;;;;9.68;3.92;;;;;;;;;;4919638;29;20123;-62
2023/10/11 07:57:44;;;;;;;8.38;3.78;;;;;;;;;;4917193;29;20137;-61
2023/10/11 08:00:18;;;;;;;12.00;3.85;;;;;;;;;;4901129;29;20393;-61
2023/10/11 08:03:02;;;;;;;8.13;3.63;;;;;;;;;;4902281;29;20036;-60
2023/10/11 08:05:29;;;;;;;9.32;3.50;;;;;;;;;;4917740;29;20035;-60
2023/10/11 08:07:55;;;;;;;7.90;3.40;;;;;;;;;;4918319;29;20048;-60
2023/10/11 08:10:33;;;;;;;9.73;3.97;;;;;;;;;;4916967;29;20393;-60
2023/10/11 08:13:00;;;;;;;10.18;3.83;;;;;;;;;;4920039;29;20059;-60
2023/10/11 08:15:25;;;;;;;15.15;3.67;;;;;;;;;;4936189;29;20031;-60
2023/10/11 08:17:52;;;;;;;9.80;3.53;;;;;;;;;;4936914;29;20118;-60
2023/10/11 08:20:20;;;;;;;10.90;3.78;;;;;;;;;;4919203;29;20034;-62
2023/10/11 08:22:49;;;;;;;7.95;3.67;;;;;;;;;;4936966;29;20039;-60
2023/10/11 08:25:15;;;;;;;12.70;4.10;;;;;;;;;;4920539;29;21709;-62
2023/10/11 08:27:41;;;;;;;10.52;4.00;;;;;;;;;;4936296;29;20027;-60
2023/10/11 08:30:09;;;;;;;6.25;3.60;;;;;;;;;;4936837;29;20358;-60
2023/10/11 08:32:38;;;;;;;9.05;3.75;;;;;;;;;;4903218;29;20039;-61
2023/10/11 08:35:31;;;;;;;10.18;4.20;;;;;;;;;;4936316;29;20082;-61
2023/10/11 08:38:02;;;;;;;9.13;3.70;;;;;;;;;;4903356;29;20035;-61
2023/10/11 08:40:35;;;;;;;10.77;4.20;;;;;;;;;;4916764;29;20032;-61
2023/10/11 08:43:01;;;;;;;9.38;3.58;;;;;;;;;;4900710;29;20028;-60
2023/10/11 08:45:33;;;;;;;11.30;3.70;;;;;;;;;;4916568;29;20032;-60
2023/10/11 08:48:06;;;;;;;11.85;3.63;;;;;;;;;;4917551;29;20036;-61
2023/10/11 08:50:35;;;;;;;9.40;4.13;;;;;;;;;;4916661;29;20040;-61
2023/10/11 08:53:08;;;;;;;12.05;4.00;;;;;;;;;;4900179;29;20613;-61
2023/10/11 08:55:39;;;;;;;8.40;4.25;;;;;;;;;;4916527;29;20036;-61
2023/10/11 08:58:05;;;;;;;11.02;4.00;;;;;;;;;;4917241;29;20031;-61
2023/10/11 09:00:33;;;;;;;8.43;3.78;;;;;;;;;;4883713;29;20032;-61
2023/10/11 09:03:18;;;;;;;7.18;3.30;;;;;;;;;;4916902;29;20122;-61
2023/10/11 09:05:43;;;;;;;11.73;4.45;;;;;;;;;;4916665;29;20048;-61
2023/10/11 09:08:26;;;;;;;10.48;4.22;;;;;;;;;;4925544;29;20036;-61
2023/10/11 09:10:51;;;;;;;8.65;3.88;;;;;;;;;;4935759;29;20043;-61
2023/10/11 09:13:27;;;;;;;9.45;4.03;;;;;;;;;;4934779;29;20038;-62
2023/10/11 09:15:56;;;;;;;10.38;3.67;;;;;;;;;;4935794;29;20465;-61
2023/10/11 09:18:25;;;;;;;9.70;3.80;;;;;;;;;;4917923;29;20032;-61
2023/10/11 09:21:10;;;;;;;11.07;4.00;;;;;;;;;;4918579;29;20036;-61
2023/10/11 09:23:46;;;;;;;6.75;3.22;;;;;;;;;;4934720;29;20122;-60
2023/10/11 09:26:32;;;;;;;10.18;4.32;;;;;;;;;;4935388;29;20039;-59
2023/10/11 09:29:04;;;;;;;9.45;4.28;;;;;;;;;;4925559;29;20124;-60
2023/10/11 09:31:35;;;;;;;9.45;4.07;;;;;;;;;;4915406;29;20404;-61
2023/10/11 09:36:51;;;;;;;10.93;3.92;;;;;;;;;;4907883;29;20185;-60
2023/10/11 09:39:18;;;;;;;8.60;3.97;;;;;;;;;;4899428;29;20126;-63
2023/10/11 09:41:45;;;;;;;9.13;4.10;;;;;;;;;;4915626;29;20112;-62
2023/10/11 09:44:11;;;;;;;12.63;4.13;;;;;;;;;;4927851;29;20123;-61
2023/10/11 09:46:37;;;;;;;8.15;3.97;;;;;;;;;;4934145;29;20123;-61
2023/10/11 09:49:12;;;;;;;13.77;4.20;;;;;;;;;;4935408;29;20035;-61
2023/10/11 09:51:42;;;;;;;13.18;4.40;;;;;;;;;;4934609;29;20118;-62
2023/10/11 09:54:12;;;;;;;10.75;4.50;;;;;;;;;;4934942;29;20568;-62
2023/10/11 09:56:50;;;;;;;7.40;3.65;;;;;;;;;;4934084;29;20134;-61
2023/10/11 09:59:37;;;;;;;6.82;3.80;;;;;;;;;;4935094;29;20028;-61
2023/10/11 10:02:06;;;;;;;9.50;3.65;;;;;;;;;;4935178;29;20031;-61
2023/10/11 10:05:05;;;;;;;9.48;3.85;;;;;;;;;;4934248;29;20040;-62
2023/10/11 10:07:43;;;;;;;12.45;4.13;;;;;;;;;;4865771;29;20415;-62
2023/10/11 10:10:13;;;;;;;17.15;4.28;;;;;;;;;;4934588;29;20043;-61
2023/10/11 10:12:43;;;;;;;15.48;4.32;;;;;;;;;;4934065;29;20039;-61
2023/10/11 10:15:57;;;;;;;9.05;3.75;;;;;;;;;;4934909;29;20039;-62
2023/10/11 10:18:12;;;;;;;7.72;3.90;;;;;;;;;;4926456;29;20496;-61
2023/10/11 10:20:41;;;;;;;10.73;4.32;;;;;;;;;;4933749;29;20040;-62
2023/10/11 10:23:16;;;;;;;13.07;3.92;;;;;;;;;;4934482;29;20524;-62
2023/10/11 10:25:50;;;;;;;12.27;4.43;;;;;;;;;;4933525;29;20066;-61
2023/10/11 10:28:34;;;;;;;14.02;4.15;;;;;;;;;;4934837;29;20118;-61
2023/10/11 10:31:09;;;;;;;10.00;4.10;;;;;;;;;;4934684;29;20072;-61
2023/10/11 10:33:35;;;;;;;14.73;4.30;;;;;;;;;;4933769;29;20028;-60
2023/10/11 10:36:19;;;;;;;11.60;3.60;;;;;;;;;;4934309;29;20086;-61
2023/10/11 10:41:38;;;;;;;10.98;3.92;;;;;;;;;;4909206;29;20040;-62
2023/10/11 10:44:17;;;;;;;13.93;4.40;;;;;;;;;;4915403;29;20025;-60
2023/10/11 10:46:53;;;;;;;13.45;4.30;;;;;;;;;;4914757;29;20039;-61
2023/10/11 10:49:21;;;;;;;10.85;4.03;;;;;;;;;;4915551;29;20036;-61
2023/10/11 10:51:51;;;;;;;10.93;4.07;;;;;;;;;;4897303;29;20039;-61
2023/10/11 10:54:23;;;;;;;12.68;4.47;;;;;;;;;;4915714;29;20040;-61
2023/10/11 10:56:53;;;;;;;11.07;4.13;;;;;;;;;;4914511;29;20032;-60
2023/10/11 10:59:25;;;;;;;14.77;4.15;;;;;;;;;;4915477;29;20115;-62
2023/10/11 11:01:51;;;;;;;13.38;4.38;;;;;;;;;;4914973;29;20047;-61
2023/10/11 11:04:24;;;;;;;11.32;4.35;;;;;;;;;;4915399;29;20061;-61
2023/10/11 11:06:50;;;;;;;12.27;3.60;;;;;;;;;;4915277;29;20108;-60
2023/10/11 11:09:25;;;;;;;12.45;4.03;;;;;;;;;;4898185;29;20469;-60
2023/10/11 11:11:58;;;;;;;13.10;3.95;;;;;;;;;;4926575;29;20059;-60
2023/10/11 11:14:25;;;;;;;12.52;4.43;;;;;;;;;;4934195;29;20458;-60
2023/10/11 11:17:00;;;;;;;13.18;4.28;;;;;;;;;;4932512;29;20035;-61
2023/10/11 11:19:27;;;;;;;14.07;4.45;;;;;;;;;;4933860;29;20032;-62
2023/10/11 11:22:12;;;;;;;12.13;4.20;;;;;;;;;;4934061;29;20056;-61
2023/10/11 11:24:41;;;;;;;10.85;4.53;;;;;;;;;;4933259;29;20078;-61
2023/10/11 11:27:27;;;;;;;8.75;4.13;;;;;;;;;;4934258;29;20027;-61
2023/10/11 11:30:04;;;;;;;11.25;3.88;;;;;;;;;;4934023;29;20035;-61
2023/10/11 11:32:42;;;;;;;10.60;3.92;;;;;;;;;;4936582;29;20493;-63
2023/10/11 11:38:05;;;;;;;11.75;4.35;;;;;;;;;;4927328;29;20108;-61
2023/10/11 11:40:36;;;;;;;10.73;4.25;;;;;;;;;;4917735;29;20040;-62
2023/10/11 11:43:03;;;;;;;12.60;3.95;;;;;;;;;;4916953;29;20148;-61
2023/10/11 11:45:35;;;;;;;12.65;4.35;;;;;;;;;;4918085;29;20035;-62
2023/10/11 11:48:01;;;;;;;10.48;4.05;;;;;;;;;;4918483;29;20035;-61
2023/10/11 11:50:36;;;;;;;14.20;4.60;;;;;;;;;;4917263;29;20425;-63
2023/10/11 11:53:03;;;;;;;11.57;4.10;;;;;;;;;;4918925;29;20043;-61
2023/10/11 11:55:28;;;;;;;13.65;4.40;;;;;;;;;;4917742;29;20036;-63
2023/10/11 11:57:54;;;;;;;9.40;4.05;;;;;;;;;;4917739;29;20103;-61
2023/10/11 12:02:51;;;;;;;12.32;4.53;;;;;;;;;;4917243;29;20609;-61
2023/10/11 12:05:17;;;;;;;14.82;4.22;;;;;;;;;;4918190;29;20032;-60
2023/10/11 12:07:43;;;;;;;16.52;3.90;;;;;;;;;;4907981;29;20031;-61
2023/10/11 12:10:23;;;;;;;11.93;4.50;;;;;;;;;;4936806;29;20023;-60
2023/10/11 12:12:53;;;;;;;12.65;4.40;;;;;;;;;;4936088;29;20052;-61
2023/10/11 12:15:19;;;;;;;15.17;4.87;;;;;;;;;;4920025;29;20038;-61
2023/10/11 12:17:46;;;;;;;15.10;4.57;;;;;;;;;;4936335;29;20480;-61
2023/10/11 12:20:13;;;;;;;11.82;4.43;;;;;;;;;;4937157;29;20030;-60
2023/10/11 12:22:42;;;;;;;11.48;4.28;;;;;;;;;;4935444;29;20500;-60
2023/10/11 12:25:11;;;;;;;14.50;4.60;;;;;;;;;;4919019;29;20039;-60
2023/10/11 12:27:40;;;;;;;9.63;4.60;;;;;;;;;;4935692;29;20059;-61
2023/10/11 12:30:19;;;;;;;16.63;4.50;;;;;;;;;;4936474;29;20112;-60
2023/10/11 12:32:45;;;;;;;12.43;5.10;;;;;;;;;;4935834;29;20028;-61
2023/10/11 12:35:11;;;;;;;10.00;4.53;;;;;;;;;;4936852;29;20080;-61
2023/10/11 12:37:36;;;;;;;14.77;5.10;;;;;;;;;;4928236;29;20411;-61
2023/10/11 12:40:11;;;;;;;10.05;4.22;;;;;;;;;;4917447;29;20484;-61
2023/10/11 12:42:45;;;;;;;8.95;3.92;;;;;;;;;;4915953;29;20032;-61
2023/10/11 12:45:10;;;;;;;12.38;4.38;;;;;;;;;;4917585;29;20032;-61
2023/10/11 12:47:35;;;;;;;13.10;4.60;;;;;;;;;;4916471;29;20496;-61
2023/10/11 12:50:03;;;;;;;8.88;4.20;;;;;;;;;;4917343;29;20040;-60
2023/10/11 12:52:30;;;;;;;12.50;4.18;;;;;;;;;;4922920;29;20027;-60
2023/10/11 12:55:00;;;;;;;12.38;4.32;;;;;;;;;;4935379;29;20036;-62
2023/10/11 12:57:27;;;;;;;13.50;4.32;;;;;;;;;;4936220;29;20024;-61
2023/10/11 12:59:53;;;;;;;12.32;4.47;;;;;;;;;;4935428;29;20051;-61
2023/10/11 13:02:21;;;;;;;9.88;4.10;;;;;;;;;;4919081;29;20063;-62
2023/10/11 13:04:47;;;;;;;13.02;4.43;;;;;;;;;;4934793;29;20031;-61
2023/10/11 13:07:16;;;;;;;13.85;4.35;;;;;;;;;;4932356;29;20031;-62
2023/10/11 13:09:41;;;;;;;9.55;4.55;;;;;;;;;;4916135;29;20067;-62
2023/10/11 13:12:08;;;;;;;13.05;4.57;;;;;;;;;;4931303;29;20083;-61
2023/10/11 13:14:35;;;;;;;10.13;4.25;;;;;;;;;;4935113;29;20115;-63
2023/10/11 13:17:05;;;;;;;13.65;3.85;;;;;;;;;;4935744;29;20039;-61
2023/10/11 13:19:31;;;;;;;10.13;3.97;;;;;;;;;;4935532;29;20515;-61
2023/10/11 13:21:57;;;;;;;9.93;3.80;;;;;;;;;;4917478;29;20118;-61
2023/10/11 13:24:24;;;;;;;10.35;4.20;;;;;;;;;;4911865;29;20104;-61
2023/10/11 13:26:57;;;;;;;9.80;3.80;;;;;;;;;;4915663;29;20489;-61
2023/10/11 13:29:24;;;;;;;16.60;4.15;;;;;;;;;;4900137;29;20040;-61
2023/10/11 13:31:54;;;;;;;12.52;4.55;;;;;;;;;;4916127;29;20032;-61
2023/10/11 13:34:21;;;;;;;20.35;4.78;;;;;;;;;;4899782;29;20481;-61
2023/10/11 13:36:47;;;;;;;20.50;4.57;;;;;;;;;;4915762;29;20036;-61
2023/10/11 13:39:27;;;;;;;12.55;4.35;;;;;;;;;;4922541;29;20087;-61
2023/10/11 13:42:04;;;;;;;11.07;4.70;;;;;;;;;;4934683;29;20043;-61
2023/10/11 13:44:32;;;;;;;13.27;4.22;;;;;;;;;;4935299;29;20072;-61
2023/10/11 13:46:58;;;;;;;13.23;4.30;;;;;;;;;;4934891;29;20039;-61
2023/10/11 13:49:26;;;;;;;16.00;4.50;;;;;;;;;;4935445;29;20048;-61
2023/10/11 13:52:06;;;;;;;14.85;4.40;;;;;;;;;;4926853;29;20032;-60
2023/10/11 13:54:42;;;;;;;12.70;4.15;;;;;;;;;;4898396;29;20043;-61
2023/10/11 13:57:17;;;;;;;12.05;4.47;;;;;;;;;;4899415;29;20082;-62
2023/10/11 13:59:47;;;;;;;12.82;4.25;;;;;;;;;;4915372;29;20032;-61
2023/10/11 14:02:37;;;;;;;14.95;4.60;;;;;;;;;;4899214;29;20381;-61
2023/10/11 14:09:58;;;;;;;11.68;4.13;;;;;;;;;;4916972;29;20031;-62
2023/10/11 14:12:35;;;;;;;14.63;4.38;;;;;;;;;;4934441;29;20096;-61
2023/10/11 14:15:01;;;;;;;19.33;4.65;;;;;;;;;;4934160;29;20159;-61
2023/10/11 14:17:26;;;;;;;16.40;4.53;;;;;;;;;;4934994;29;20095;-61
2023/10/11 14:19:53;;;;;;;11.23;4.65;;;;;;;;;;4933970;29;20447;-61
2023/10/11 14:22:21;;;;;;;19.00;4.63;;;;;;;;;;4934873;29;20036;-62
2023/10/11 14:24:51;;;;;;;18.30;4.75;;;;;;;;;;4933757;29;20038;-61
2023/10/11 14:27:19;;;;;;;16.13;5.07;;;;;;;;;;4934773;29;20039;-62
2023/10/11 14:29:46;;;;;;;11.65;4.20;;;;;;;;;;4933802;29;20037;-62
2023/10/11 14:32:13;;;;;;;13.85;4.80;;;;;;;;;;4934819;29;20027;-61
2023/10/11 14:34:40;;;;;;;14.70;4.07;;;;;;;;;;4934117;29;20078;-63
2023/10/11 14:37:07;;;;;;;16.77;4.72;;;;;;;;;;4933910;29;20489;-61
2023/10/11 14:39:33;;;;;;;16.10;4.78;;;;;;;;;;4932926;29;20464;-61
2023/10/11 14:41:58;;;;;;;13.38;4.60;;;;;;;;;;4931921;29;20047;-61
2023/10/11 14:44:24;;;;;;;12.18;4.60;;;;;;;;;;4934276;29;20032;-61
2023/10/11 14:46:52;;;;;;;13.25;4.80;;;;;;;;;;4933637;29;20115;-61
2023/10/11 14:49:21;;;;;;;19.50;4.57;;;;;;;;;;4934409;29;20032;-61
2023/10/11 14:51:47;;;;;;;14.80;4.50;;;;;;;;;;4933062;29;20031;-61
2023/10/11 14:54:12;;;;;;;13.75;4.60;;;;;;;;;;4901525;29;20091;-60
2023/10/11 14:56:38;;;;;;;10.75;4.55;;;;;;;;;;4933803;29;20036;-62
2023/10/11 14:59:03;;;;;;;13.25;4.55;;;;;;;;;;4933548;29;20023;-60
2023/10/11 15:01:33;;;;;;;10.70;4.10;;;;;;;;;;4934381;29;20377;-60
2023/10/11 15:04:09;;;;;;;14.02;4.43;;;;;;;;;;4932774;29;20039;-60
2023/10/11 15:06:45;;;;;;;13.32;4.03;;;;;;;;;;4936875;29;20084;-60
2023/10/11 15:09:11;;;;;;;16.00;4.50;;;;;;;;;;4919350;29;20035;-59
2023/10/11 15:11:36;;;;;;;11.80;4.57;;;;;;;;;;4937364;29;20128;-62
2023/10/11 15:14:03;;;;;;;14.90;4.78;;;;;;;;;;4935830;29;20864;-61
2023/10/11 15:16:30;;;;;;;13.75;4.40;;;;;;;;;;4937570;29;20137;-63
2023/10/11 15:18:55;;;;;;;14.13;4.60;;;;;;;;;;4921142;29;20027;-61
2023/10/11 15:21:22;;;;;;;10.38;4.65;;;;;;;;;;4928227;29;20462;-63
2023/10/11 15:23:48;;;;;;;12.73;4.60;;;;;;;;;;4937075;29;20039;-62
2023/10/11 15:26:16;;;;;;;16.23;4.53;;;;;;;;;;4954112;29;20035;-63
2023/10/11 15:28:42;;;;;;;15.48;4.50;;;;;;;;;;4940174;29;20039;-60
2023/10/11 15:31:07;;;;;;;15.82;4.65;;;;;;;;;;4919832;29;20071;-64
2023/10/11 15:33:36;;;;;;;13.52;4.13;;;;;;;;;;4937281;29;20070;-62
2023/10/11 15:36:02;;;;;;;13.90;4.43;;;;;;;;;;4919270;29;20172;-62
2023/10/11 15:38:28;;;;;;;11.15;4.20;;;;;;;;;;4904385;29;20456;-61
2023/10/11 15:41:01;;;;;;;13.55;4.25;;;;;;;;;;4935925;29;20035;-62
2023/10/11 15:43:27;;;;;;;13.25;4.15;;;;;;;;;;4921006;29;20055;-62